Time;durP1;ratioP1;P1;durP2;ratioP2;P2;SDS_P1;SDS_P2;PMS_P1;PMS_P2;Temp;Humidity;BMP_temperature;BMP_pressure;BME280_temperature;BME280_humidity;BME280_pressure;Samples;Min_cycle;Max_cycle;Signal;HPM_P1;HPM_P2
2023/01/01 00:01:16;;;;;;;55.72;37.35;;;;;;;1.18;100.00;94526.34;5091150;28;20416;-69
2023/01/01 00:03:49;;;;;;;65.22;40.53;;;;;;;1.15;100.00;94530.84;5083631;28;20492;-71
2023/01/01 00:06:16;;;;;;;69.43;44.17;;;;;;;1.06;100.00;94510.38;5071683;28;20097;-70
2023/01/01 00:08:42;;;;;;;69.90;45.38;;;;;;;1.19;100.00;94527.94;5073361;28;21619;-70
2023/01/01 00:11:14;;;;;;;70.78;42.85;;;;;;;1.21;100.00;94525.31;5080232;28;20052;-70
2023/01/01 00:13:43;;;;;;;70.05;43.78;;;;;;;1.16;100.00;94520.59;5075510;28;20082;-70
2023/01/01 00:16:19;;;;;;;76.95;47.42;;;;;;;1.20;100.00;94519.44;5085483;28;20048;-70
2023/01/01 00:18:47;;;;;;;88.07;50.97;;;;;;;1.27;100.00;94529.91;5077169;28;20127;-70
2023/01/01 00:21:14;;;;;;;81.20;50.75;;;;;;;1.17;100.00;94522.19;5077613;28;20047;-70
2023/01/01 00:23:41;;;;;;;82.15;50.15;;;;;;;1.20;100.00;94533.81;5091632;28;20543;-69
2023/01/01 00:26:10;;;;;;;84.57;51.03;;;;;;;1.25;100.00;94526.66;5091342;28;20040;-69
2023/01/01 00:28:37;;;;;;;78.90;48.92;;;;;;;1.31;100.00;94531.25;5078471;28;20404;-69
2023/01/01 00:31:06;;;;;;;84.07;50.78;;;;;;;1.30;100.00;94519.50;5087800;28;20066;-69
2023/01/01 00:33:33;;;;;;;98.55;58.75;;;;;;;1.38;100.00;94533.31;5088647;28;20048;-69
2023/01/01 00:36:07;;;;;;;102.82;59.35;;;;;;;1.40;100.00;94532.28;5088982;28;20488;-69
2023/01/01 00:38:34;;;;;;;108.63;65.43;;;;;;;1.41;100.00;94530.53;5089202;28;20060;-69
2023/01/01 00:41:01;;;;;;;104.68;62.33;;;;;;;1.37;100.00;94527.44;5088948;28;20040;-69
2023/01/01 00:43:27;;;;;;;102.47;61.92;;;;;;;1.30;100.00;94521.25;5089564;28;20101;-70
2023/01/01 00:45:54;;;;;;;111.18;62.58;;;;;;;1.23;100.00;94520.09;5076053;28;20048;-69
2023/01/01 00:48:21;;;;;;;106.50;62.63;;;;;;;1.30;100.00;94527.09;5088241;28;20052;-69
2023/01/01 00:50:48;;;;;;;94.53;56.35;;;;;;;1.27;100.00;94529.91;5088962;28;20044;-69
2023/01/01 00:53:17;;;;;;;95.90;56.03;;;;;;;1.24;100.00;94537.72;5089019;28;20052;-69
2023/01/01 00:55:45;;;;;;;94.13;56.17;;;;;;;1.22;100.00;94538.75;5089028;28;20546;-70
2023/01/01 00:58:11;;;;;;;93.40;57.08;;;;;;;1.19;100.00;94547.38;5088822;28;20488;-70
2023/01/01 01:00:38;;;;;;;94.78;56.28;;;;;;;1.12;100.00;94538.66;5089034;28;20044;-70
2023/01/01 01:03:05;;;;;;;101.20;57.00;;;;;;;1.06;100.00;94547.53;5088784;28;20048;-70
2023/01/01 01:05:32;;;;;;;75.63;46.35;;;;;;;1.03;100.00;94532.59;5088922;28;20047;-70
2023/01/01 01:07:59;;;;;;;84.85;49.55;;;;;;;1.03;100.00;94540.97;5089155;28;20420;-70
2023/01/01 01:10:27;;;;;;;95.43;52.30;;;;;;;1.00;100.00;94536.16;5075560;28;20044;-70
2023/01/01 01:12:55;;;;;;;100.97;53.58;;;;;;;0.98;100.00;94532.13;5088631;28;20044;-70
2023/01/01 01:15:21;;;;;;;91.63;52.08;;;;;;;0.96;100.00;94524.66;5088625;28;20048;-69
2023/01/01 01:17:48;;;;;;;89.22;49.33;;;;;;;0.93;100.00;94525.69;5088749;28;20458;-70
2023/01/01 01:20:15;;;;;;;170.65;92.95;;;;;;;0.88;100.00;94529.50;5088583;28;20105;-70
2023/01/01 01:22:41;;;;;;;126.95;71.78;;;;;;;0.85;100.00;94527.19;5068339;28;20178;-70
2023/01/01 01:25:09;;;;;;;128.40;75.20;;;;;;;0.76;100.00;94519.41;5068817;28;20049;-70
2023/01/01 01:27:37;;;;;;;120.15;68.95;;;;;;;0.79;100.00;94525.97;5068622;28;20048;-70
2023/01/01 01:30:05;;;;;;;112.60;63.25;;;;;;;0.79;100.00;94525.97;5068345;28;20056;-70
2023/01/01 01:32:31;;;;;;;101.03;59.65;;;;;;;0.78;100.00;94524.34;5068466;28;20044;-70
2023/01/01 01:34:58;;;;;;;110.70;61.28;;;;;;;0.75;100.00;94519.53;5068242;28;20460;-70
2023/01/01 01:37:25;;;;;;;118.88;70.30;;;;;;;0.71;100.00;94529.06;5068719;28;20094;-70
2023/01/01 01:39:51;;;;;;;189.27;104.65;;;;;;;0.67;100.00;94527.69;5068637;28;20044;-70
2023/01/01 01:42:18;;;;;;;169.75;93.45;;;;;;;0.66;100.00;94531.13;5068136;28;20098;-70
2023/01/01 01:44:58;;;;;;;191.05;109.90;;;;;;;0.64;100.00;94518.59;5068307;28;20048;-70
2023/01/01 01:47:29;;;;;;;165.18;97.38;;;;;;;0.71;100.00;94515.59;5068293;28;20496;-70
2023/01/01 01:50:02;;;;;;;154.48;90.28;;;;;;;0.76;100.00;94513.53;5068098;28;20041;-70
2023/01/01 01:52:32;;;;;;;144.65;87.13;;;;;;;0.74;100.00;94522.97;5069517;28;20058;-70
2023/01/01 01:55:01;;;;;;;114.88;68.10;;;;;;;0.72;100.00;94515.50;5068293;28;20060;-70
2023/01/01 01:57:29;;;;;;;145.57;91.95;;;;;;;0.71;100.00;94521.47;5068251;28;20044;-70
2023/01/01 01:59:58;;;;;;;108.97;63.85;;;;;;;0.69;100.00;94520.00;5068380;28;20037;-70
2023/01/01 02:02:32;;;;;;;101.30;60.20;;;;;;;0.69;100.00;94514.94;5068500;28;20405;-70
2023/01/01 02:04:59;;;;;;;115.10;68.15;;;;;;;0.69;100.00;94520.78;5068175;28;20040;-70
2023/01/01 02:07:27;;;;;;;116.53;66.15;;;;;;;0.67;100.00;94520.09;5068379;28;20040;-70
2023/01/01 02:09:54;;;;;;;99.65;57.88;;;;;;;0.59;100.00;94512.28;5067908;28;20043;-70
2023/01/01 02:12:21;;;;;;;89.93;51.00;;;;;;;0.61;100.00;94525.63;5068174;28;20044;-70
2023/01/01 02:14:48;;;;;;;94.20;53.03;;;;;;;0.52;100.00;94532.19;5068209;28;20049;-70
2023/01/01 02:17:24;;;;;;;107.78;62.55;;;;;;;0.39;100.00;94525.50;5068138;28;20098;-70
2023/01/01 02:19:58;;;;;;;;;;;;;;;0.47;100.00;94529.19;5068622;28;20045;-70
2023/01/01 02:22:33;;;;;;;110.82;65.25;;;;;;;0.41;100.00;94532.97;5067896;28;19968;-71
2023/01/01 02:25:11;;;;;;;111.75;65.07;;;;;;;0.23;100.00;94504.81;5067779;28;20041;-70
2023/01/01 02:27:50;;;;;;;96.90;60.28;;;;;;;0.44;100.00;94534.47;5067898;28;20056;-70
2023/01/01 02:30:19;;;;;;;103.80;66.30;;;;;;;0.41;100.00;94540.53;5067951;28;20048;-70
2023/01/01 02:32:49;;;;;;;109.18;64.93;;;;;;;0.43;100.00;94535.38;5067833;28;20040;-70
2023/01/01 02:35:37;;;;;;;112.30;65.82;;;;;;;0.20;100.00;94499.97;5067944;28;20053;-70
2023/01/01 02:38:09;;;;;;;112.00;64.40;;;;;;;0.40;100.00;94541.47;5067814;28;20836;-70
2023/01/01 02:40:40;;;;;;;100.65;60.13;;;;;;;0.30;100.00;94522.84;5067892;28;20110;-70
2023/01/01 02:43:07;;;;;;;85.38;49.58;;;;;;;0.35;100.00;94538.47;5067821;28;20049;-70
2023/01/01 02:45:35;;;;;;;77.78;47.10;;;;;;;0.27;100.00;94528.94;5067896;28;20097;-70
2023/01/01 02:48:06;;;;;;;79.60;46.00;;;;;;;0.26;100.00;94525.63;5067560;28;20550;-70
2023/01/01 02:50:34;;;;;;;80.90;45.97;;;;;;;0.38;100.00;94533.19;5068900;28;20105;-70
2023/01/01 02:53:17;;;;;;;121.60;58.90;;;;;;;0.33;100.00;94538.59;5067740;28;20098;-70
2023/01/01 02:55:54;;;;;;;76.75;40.45;;;;;;;0.29;100.00;94538.94;5067828;28;20055;-70
2023/01/01 03:01:23;;;;;;;94.20;55.08;;;;;;;0.06;100.00;94518.69;5071197;28;20443;-70
2023/01/01 03:04:01;;;;;;;95.32;54.38;;;;;;;0.08;100.00;94516.84;5071438;28;20044;-70
2023/01/01 03:06:37;;;;;;;92.18;55.88;;;;;;;0.17;100.00;94530.53;5071296;28;20045;-70
2023/01/01 03:09:14;;;;;;;92.13;52.88;;;;;;;0.17;100.00;94528.81;5070912;28;20052;-70
2023/01/01 03:11:51;;;;;;;91.95;54.83;;;;;;;0.18;100.00;94525.34;5071080;28;20117;-71
2023/01/01 03:14:23;;;;;;;96.72;58.95;;;;;;;0.09;100.00;94505.84;5070955;28;20048;-70
2023/01/01 03:16:57;;;;;;;82.07;51.30;;;;;;;0.16;100.00;94521.34;5071464;28;20463;-70
2023/01/01 03:19:26;;;;;;;84.65;48.63;;;;;;;0.10;100.00;94520.88;5070789;28;20041;-70
2023/01/01 03:21:57;;;;;;;74.60;45.58;;;;;;;0.12;100.00;94513.19;5070657;28;20071;-70
2023/01/01 03:24:30;;;;;;;75.32;45.78;;;;;;;0.21;100.00;94532.72;5070987;28;20094;-70
2023/01/01 03:27:01;;;;;;;77.57;43.88;;;;;;;0.12;100.00;94523.28;5073789;28;20040;-71
2023/01/01 03:29:32;;;;;;;68.53;40.30;;;;;;;0.16;100.00;94533.97;5070498;28;20128;-71
2023/01/01 03:32:02;;;;;;;66.38;40.40;;;;;;;0.15;100.00;94533.19;5070355;28;20509;-70
2023/01/01 03:34:37;;;;;;;68.80;37.95;;;;;;;0.17;100.00;94535.56;5070481;28;20094;-70
2023/01/01 03:37:07;;;;;;;61.17;36.70;;;;;;;0.15;100.00;94533.19;5071044;28;20045;-70
2023/01/01 03:39:36;;;;;;;60.13;37.15;;;;;;;0.05;100.00;94520.41;5070489;28;20048;-70
2023/01/01 03:42:14;;;;;;;57.30;36.20;;;;;;;0.16;100.00;94531.44;5070539;28;20044;-70
2023/01/01 03:44:45;;;;;;;61.85;38.53;;;;;;;0.13;100.00;94527.41;5070320;28;20045;-70
2023/01/01 03:47:14;;;;;;;66.05;39.35;;;;;;;0.15;100.00;94530.66;5070429;28;20048;-70
2023/01/01 03:49:41;;;;;;;59.83;39.33;;;;;;;0.10;100.00;94528.44;5070405;28;20086;-70
2023/01/01 03:52:21;;;;;;;68.10;41.22;;;;;;;0.12;100.00;94535.91;5071834;28;20082;-70
2023/01/01 03:54:57;;;;;;;69.68;41.60;;;;;;;0.12;100.00;94528.34;5070166;28;20106;-70
2023/01/01 03:57:29;;;;;;;72.38;47.10;;;;;;;0.05;100.00;94532.25;5070501;28;20748;-70
2023/01/01 04:00:02;;;;;;;73.88;45.30;;;;;;;-0.08;100.00;94515.47;5070148;28;20049;-70
2023/01/01 04:02:35;;;;;;;76.53;44.65;;;;;;;0.02;100.00;94537.50;5070279;28;20408;-70
2023/01/01 04:05:06;;;;;;;92.07;55.60;;;;;;;-0.02;100.00;94532.69;5070185;28;20049;-70
2023/01/01 04:07:34;;;;;;;83.78;47.70;;;;;;;-0.15;100.00;94529.44;5069753;28;20044;-70
2023/01/01 04:10:15;;;;;;;97.68;56.50;;;;;;;-0.18;100.00;94540.56;5068653;28;20496;-70
2023/01/01 04:12:44;;;;;;;112.63;67.40;;;;;;;-0.29;100.00;94540.53;5070130;28;20047;-70
2023/01/01 04:15:11;;;;;;;100.20;59.85;;;;;;;-0.42;100.00;94540.59;5069679;28;20052;-70
2023/01/01 04:17:39;;;;;;;105.65;61.08;;;;;;;-0.41;100.00;94543.00;5069703;28;20497;-70
2023/01/01 04:20:06;;;;;;;95.32;55.25;;;;;;;-0.35;100.00;94541.78;5069667;28;20048;-70
2023/01/01 04:22:33;;;;;;;100.35;54.85;;;;;;;-0.27;100.00;94543.75;5069537;28;20094;-70
2023/01/01 04:25:00;;;;;;;99.95;56.67;;;;;;;-0.22;100.00;94536.66;5069723;28;20041;-70
2023/01/01 04:27:26;;;;;;;106.93;61.00;;;;;;;-0.23;100.00;94536.75;5069882;28;20097;-69
2023/01/01 04:29:53;;;;;;;114.18;61.80;;;;;;;-0.20;100.00;94544.09;5069263;28;21251;-70
2023/01/01 04:32:20;;;;;;;100.07;59.35;;;;;;;-0.18;100.00;94545.59;5069685;28;20048;-70
2023/01/01 04:34:49;;;;;;;95.82;55.90;;;;;;;-0.18;100.00;94550.66;5069534;28;20563;-70
2023/01/01 04:37:16;;;;;;;71.13;43.17;;;;;;;-0.22;100.00;94545.94;5069205;28;20090;-70
2023/01/01 04:39:43;;;;;;;62.67;37.42;;;;;;;-0.37;100.00;94533.50;5069535;28;20040;-69
2023/01/01 04:42:09;;;;;;;54.45;34.42;;;;;;;-0.25;100.00;94549.50;5069539;28;20044;-69
2023/01/01 04:44:36;;;;;;;51.42;33.75;;;;;;;-0.22;100.00;94548.47;5069165;28;20041;-69
2023/01/01 04:47:03;;;;;;;49.97;32.88;;;;;;;-0.21;100.00;94542.50;5069390;28;20040;-69
2023/01/01 04:49:30;;;;;;;51.03;33.25;;;;;;;-0.18;100.00;94542.28;5069142;28;20041;-70
2023/01/01 04:51:58;;;;;;;49.90;30.20;;;;;;;-0.15;100.00;94537.00;5070026;28;20498;-70
2023/01/01 04:54:24;;;;;;;51.30;31.88;;;;;;;-0.16;100.00;94531.16;5070434;28;20496;-70
2023/01/01 04:56:51;;;;;;;49.60;29.35;;;;;;;-0.14;100.00;94534.38;5090059;28;20093;-70
2023/01/01 04:59:18;;;;;;;43.38;27.60;;;;;;;-0.19;100.00;94536.44;5089560;28;20559;-70
2023/01/01 05:01:45;;;;;;;45.60;26.55;;;;;;;-0.22;100.00;94536.66;5089990;28;20195;-70
2023/01/01 05:04:14;;;;;;;40.55;25.00;;;;;;;-0.24;100.00;94546.06;5089424;28;20055;-70
2023/01/01 05:06:41;;;;;;;39.67;24.00;;;;;;;-0.31;100.00;94550.75;5089654;28;20101;-70
2023/01/01 05:09:11;;;;;;;33.25;21.98;;;;;;;-0.36;100.00;94546.94;5089452;28;20504;-70
2023/01/01 05:11:38;;;;;;;33.15;23.27;;;;;;;-0.39;100.00;94539.56;5089917;28;20097;-70
2023/01/01 05:14:05;;;;;;;38.42;23.70;;;;;;;-0.42;100.00;94550.69;5089699;28;20399;-70
2023/01/01 05:16:34;;;;;;;38.53;24.27;;;;;;;-0.48;100.00;94549.41;5089378;28;20511;-70
2023/01/01 05:19:01;;;;;;;87.43;55.78;;;;;;;-0.55;100.00;94541.47;5089503;28;20044;-70
2023/01/01 05:21:30;;;;;;;234.25;111.40;;;;;;;-0.50;100.00;94541.16;5089288;28;20097;-70
2023/01/01 05:23:59;;;;;;;179.00;90.00;;;;;;;-0.49;100.00;94540.22;5089628;28;20054;-70
2023/01/01 05:26:29;;;;;;;117.10;64.07;;;;;;;-0.46;100.00;94539.22;5089261;28;20446;-70
2023/01/01 05:28:56;;;;;;;84.72;47.63;;;;;;;-0.41;100.00;94542.22;5089139;28;20105;-70
2023/01/01 05:31:24;;;;;;;59.58;35.90;;;;;;;-0.64;100.00;94509.31;5089446;28;20073;-70
2023/01/01 05:33:52;;;;;;;53.35;31.85;;;;;;;-0.53;100.00;94521.16;5089304;28;20040;-71
2023/01/01 05:36:21;;;;;;;47.05;28.63;;;;;;;-0.34;100.00;94542.56;5089176;28;20048;-70
2023/01/01 05:38:48;;;;;;;43.90;27.95;;;;;;;-0.30;100.00;94543.97;5088898;28;20044;-70
2023/01/01 05:41:16;;;;;;;41.05;26.45;;;;;;;-0.23;100.00;94544.34;5089277;28;20300;-70
2023/01/01 05:43:44;;;;;;;37.95;24.25;;;;;;;-0.21;100.00;94545.84;5089397;28;20093;-70
2023/01/01 05:46:13;;;;;;;35.63;23.80;;;;;;;-0.22;100.00;94535.84;5089324;28;20090;-70
2023/01/01 05:48:40;;;;;;;34.08;21.35;;;;;;;-0.30;100.00;94536.38;5076024;28;20048;-70
2023/01/01 05:51:08;;;;;;;32.30;21.08;;;;;;;-0.33;100.00;94544.19;5088895;28;20571;-70
2023/01/01 05:53:35;;;;;;;31.08;20.80;;;;;;;-0.33;100.00;94545.00;5088934;28;20052;-70
2023/01/01 05:56:02;;;;;;;32.55;20.58;;;;;;;-0.36;100.00;94542.69;5089139;28;20105;-70
2023/01/01 05:58:30;;;;;;;34.38;22.70;;;;;;;-0.34;100.00;94540.03;5088769;28;20048;-70
2023/01/01 06:01:06;;;;;;;37.85;24.13;;;;;;;-0.38;100.00;94549.56;5089120;28;20044;-71
2023/01/01 06:03:33;;;;;;;45.47;27.92;;;;;;;-0.45;100.00;94550.91;5088702;28;20492;-70
2023/01/01 06:06:03;;;;;;;63.42;38.08;;;;;;;-0.62;100.00;94547.03;5089198;28;20044;-70
2023/01/01 06:08:30;;;;;;;57.10;35.80;;;;;;;-0.63;100.00;94542.91;5089149;28;20093;-70
2023/01/01 06:10:59;;;;;;;66.38;41.88;;;;;;;-0.71;100.00;94549.31;5088973;28;20094;-70
2023/01/01 06:13:25;;;;;;;62.13;39.78;;;;;;;-0.85;100.00;94554.50;5088645;28;20048;-70
2023/01/01 06:15:54;;;;;;;56.50;35.65;;;;;;;-0.74;100.00;94556.28;5089297;28;20048;-70
2023/01/01 06:18:22;;;;;;;66.75;41.15;;;;;;;-0.67;100.00;94554.94;5088801;28;20044;-70
2023/01/01 06:20:49;;;;;;;67.75;41.80;;;;;;;-0.64;100.00;94554.75;5088787;28;20324;-70
2023/01/01 06:23:16;;;;;;;66.18;42.15;;;;;;;-0.60;100.00;94558.63;5088481;28;20052;-71
2023/01/01 06:25:43;;;;;;;64.82;40.97;;;;;;;-0.72;100.00;94545.19;5088931;28;20044;-70
2023/01/01 06:28:10;;;;;;;62.78;38.92;;;;;;;-0.56;100.00;94567.63;5088865;28;20063;-70
2023/01/01 06:30:36;;;;;;;60.83;39.33;;;;;;;-0.48;100.00;94568.78;5088459;28;20549;-70
2023/01/01 06:33:03;;;;;;;58.40;39.45;;;;;;;-0.43;100.00;94572.63;5090847;28;20056;-71
2023/01/01 06:35:31;;;;;;;57.35;36.78;;;;;;;-0.40;100.00;94576.63;5092686;28;20056;-70
2023/01/01 06:37:59;;;;;;;62.53;39.08;;;;;;;-0.44;100.00;94573.53;5079426;28;20036;-70
2023/01/01 06:40:25;;;;;;;59.70;37.38;;;;;;;-0.39;100.00;94577.44;5089108;28;20095;-70
2023/01/01 06:42:52;;;;;;;52.80;35.50;;;;;;;-0.34;100.00;94578.72;5090671;28;20098;-70
2023/01/01 06:45:19;;;;;;;64.35;40.72;;;;;;;-0.33;100.00;94577.81;5091539;28;20044;-70
2023/01/01 06:47:45;;;;;;;80.72;47.50;;;;;;;-0.27;100.00;94577.38;5092485;28;20453;-70
2023/01/01 06:50:12;;;;;;;75.72;44.50;;;;;;;-0.19;100.00;94578.56;5092306;28;20052;-70
2023/01/01 06:52:40;;;;;;;72.97;43.40;;;;;;;-0.11;100.00;94583.03;5092071;28;20499;-70
2023/01/01 06:55:08;;;;;;;87.05;47.58;;;;;;;0.01;100.00;94588.94;5091794;28;20060;-70
2023/01/01 06:57:35;;;;;;;89.80;52.00;;;;;;;0.07;100.00;94583.44;5091756;28;20048;-71
2023/01/01 07:00:01;;;;;;;87.25;52.38;;;;;;;0.23;100.00;94596.59;5091807;28;20500;-71
2023/01/01 07:02:28;;;;;;;80.32;50.92;;;;;;;0.28;100.00;94596.28;5092472;28;20889;-71
2023/01/01 07:04:55;;;;;;;116.72;69.50;;;;;;;0.36;100.00;94586.41;5091605;28;20048;-71
2023/01/01 07:07:21;;;;;;;87.38;52.92;;;;;;;0.48;100.00;94584.69;5091804;28;20094;-71
2023/01/01 07:09:49;;;;;;;80.20;48.50;;;;;;;0.57;100.00;94587.44;5092106;28;20043;-70
2023/01/01 07:12:16;;;;;;;71.15;44.50;;;;;;;0.68;100.00;94592.50;5091657;28;20496;-70
2023/01/01 07:14:43;;;;;;;54.92;34.40;;;;;;;0.75;100.00;94595.41;5091775;28;20442;-70
2023/01/01 07:17:09;;;;;;;44.83;29.70;;;;;;;0.78;100.00;94585.03;5092003;28;20056;-71
2023/01/01 07:19:36;;;;;;;44.22;29.50;;;;;;;0.90;100.00;94599.31;5091666;28;20044;-71
2023/01/01 07:22:03;;;;;;;39.08;27.85;;;;;;;0.99;100.00;94602.88;5091566;28;20089;-70
2023/01/01 07:24:29;;;;;;;44.33;29.42;;;;;;;1.03;100.00;94601.69;5091782;28;20097;-70
2023/01/01 07:26:57;;;;;;;49.83;33.28;;;;;;;1.14;100.00;94593.31;5091770;28;20109;-70
2023/01/01 07:29:24;;;;;;;57.05;35.92;;;;;;;1.22;100.00;94594.44;5091681;28;20460;-71
2023/01/01 07:31:51;;;;;;;58.80;37.30;;;;;;;1.30;100.00;94602.25;5077893;28;20040;-71
2023/01/01 07:34:19;;;;;;;60.20;36.70;;;;;;;1.29;100.00;94582.94;5091498;28;20125;-71
2023/01/01 07:36:46;;;;;;;59.17;36.35;;;;;;;1.49;100.00;94585.63;5091319;28;20054;-71
2023/01/01 07:39:12;;;;;;;59.83;37.53;;;;;;;1.59;100.00;94582.25;5091266;28;20448;-71
2023/01/01 07:41:39;;;;;;;65.15;41.60;;;;;;;1.67;100.00;94589.25;5091317;28;20044;-71
2023/01/01 07:44:07;;;;;;;69.45;42.63;;;;;;;1.78;100.00;94588.44;5090974;28;20044;-71
2023/01/01 07:46:35;;;;;;;61.15;40.00;;;;;;;1.87;100.00;94595.28;5090961;28;20051;-71
2023/01/01 07:49:02;;;;;;;41.38;28.30;;;;;;;1.98;100.00;94591.91;5091230;28;20116;-71
2023/01/01 07:51:29;;;;;;;59.35;39.83;;;;;;;2.03;100.00;94588.22;5090973;28;20056;-71
2023/01/01 07:53:56;;;;;;;60.83;39.22;;;;;;;2.18;100.00;94591.25;5091010;28;20048;-71
2023/01/01 07:56:22;;;;;;;72.65;43.92;;;;;;;2.30;100.00;94590.25;5091276;28;20067;-71
2023/01/01 07:58:49;;;;;;;60.13;39.70;;;;;;;2.42;100.00;94593.53;5091150;28;20040;-71
2023/01/01 08:01:18;;;;;;;63.45;41.13;;;;;;;2.50;100.00;94590.38;5091016;28;20098;-71
2023/01/01 08:03:44;;;;;;;64.55;41.75;;;;;;;2.61;100.00;94590.31;5091083;28;20050;-72
2023/01/01 08:06:13;;;;;;;59.80;37.15;;;;;;;2.75;100.00;94591.69;5090996;28;20105;-71
2023/01/01 08:08:40;;;;;;;66.57;40.97;;;;;;;2.56;100.00;94548.47;5090542;28;20085;-72
2023/01/01 08:11:07;;;;;;;66.35;42.13;;;;;;;2.89;100.00;94584.66;5090692;28;20098;-71
2023/01/01 08:13:33;;;;;;;68.18;43.05;;;;;;;3.02;100.00;94587.00;5090697;28;20044;-72
2023/01/01 08:16:00;;;;;;;67.05;41.25;;;;;;;3.07;100.00;94590.72;5090912;28;20518;-72
2023/01/01 08:18:28;;;;;;;57.03;39.42;;;;;;;3.10;100.00;94594.75;5084418;28;20070;-72
2023/01/01 08:20:56;;;;;;;70.47;44.25;;;;;;;3.02;100.00;94594.59;5078817;28;20048;-71
2023/01/01 08:23:23;;;;;;;64.45;41.63;;;;;;;2.96;100.00;94598.44;5089787;28;20040;-72
2023/01/01 08:25:49;;;;;;;71.93;43.55;;;;;;;3.02;100.00;94597.16;5090665;28;20043;-71
2023/01/01 08:28:16;;;;;;;68.90;42.75;;;;;;;3.10;100.00;94594.75;5090193;28;20044;-71
2023/01/01 08:30:43;;;;;;;66.40;41.38;;;;;;;3.15;100.00;94600.25;5085139;28;20044;-71
2023/01/01 08:33:09;;;;;;;61.70;41.92;;;;;;;3.08;100.00;94594.09;5082061;28;20044;-71
2023/01/01 08:35:41;;;;;;;57.75;37.40;;;;;;;3.10;100.00;94596.50;5085747;28;20052;-71
2023/01/01 08:38:10;;;;;;;52.58;35.03;;;;;;;3.04;100.00;94593.53;5070280;28;20115;-72
2023/01/01 08:40:37;;;;;;;55.45;33.78;;;;;;;3.04;100.00;94597.81;5085564;28;20040;-71
2023/01/01 08:43:04;;;;;;;47.58;32.33;;;;;;;2.90;100.00;94604.03;5069246;28;20559;-72
2023/01/01 08:45:30;;;;;;;44.97;29.38;;;;;;;2.97;100.00;94595.00;5069051;28;20428;-72
2023/01/01 08:47:57;;;;;;;40.65;27.15;;;;;;;3.01;100.00;94598.88;5077446;28;20110;-71
2023/01/01 08:50:24;;;;;;;38.08;25.60;;;;;;;3.04;100.00;94590.19;5089671;28;20085;-71
2023/01/01 08:52:52;;;;;;;34.65;23.90;;;;;;;3.03;100.00;94586.06;5072766;28;20826;-71
2023/01/01 08:55:19;;;;;;;41.85;25.35;;;;;;;3.13;100.00;94593.69;5089115;28;20052;-71
2023/01/01 08:57:45;;;;;;;31.05;21.17;;;;;;;3.14;100.00;94588.50;5089413;28;20058;-71
2023/01/01 09:00:13;;;;;;;36.10;21.95;;;;;;;3.20;100.00;94582.09;5089675;28;20132;-71
2023/01/01 09:02:40;;;;;;;33.83;21.77;;;;;;;3.34;100.00;94586.00;5089817;28;20055;-71
2023/01/01 09:05:08;;;;;;;31.50;20.23;;;;;;;3.40;100.00;94584.66;5089537;28;20093;-71
2023/01/01 09:07:34;;;;;;;34.15;22.42;;;;;;;3.51;100.00;94586.31;5089257;28;20048;-71
2023/01/01 09:10:02;;;;;;;40.08;23.83;;;;;;;3.56;100.00;94586.72;5089752;28;20145;-70
2023/01/01 09:12:29;;;;;;;39.33;24.70;;;;;;;3.59;100.00;94587.25;5089579;28;20093;-71
2023/01/01 09:14:56;;;;;;;35.88;22.05;;;;;;;3.73;100.00;94580.16;5089312;28;20534;-70
2023/01/01 09:17:23;;;;;;;37.40;23.05;;;;;;;3.76;100.00;94571.47;5088083;28;20101;-70
2023/01/01 09:19:49;;;;;;;41.88;25.77;;;;;;;3.59;100.00;94535.63;5089587;28;20048;-70
2023/01/01 09:22:16;;;;;;;49.97;26.50;;;;;;;4.01;100.00;94559.97;5089414;28;20067;-71
2023/01/01 09:24:46;;;;;;;53.47;29.63;;;;;;;4.22;100.00;94564.09;5078920;28;20097;-71
2023/01/01 09:27:14;;;;;;;63.92;31.33;;;;;;;4.27;100.00;94564.47;5084991;28;20066;-69
2023/01/01 09:29:41;;;;;;;59.65;32.17;;;;;;;4.43;100.00;94553.72;5084434;28;20072;-70
2023/01/01 09:32:07;;;;;;;55.70;29.60;;;;;;;4.59;100.00;94554.91;5086924;28;20086;-70
2023/01/01 09:34:34;;;;;;;55.88;30.60;;;;;;;4.73;100.00;94557.00;5085826;28;20045;-70
2023/01/01 09:37:11;;;;;;;62.05;31.40;;;;;;;4.91;100.00;94562.13;5079918;28;20098;-70
2023/01/01 09:39:51;;;;;;;57.90;31.80;;;;;;;5.05;100.00;94555.75;5084611;28;20048;-70
2023/01/01 09:42:43;;;;;;;46.00;25.35;;;;;;;5.20;100.00;94555.31;5077587;28;20198;-70
2023/01/01 09:45:23;;;;;;;51.38;30.00;;;;;;;5.34;100.00;94557.34;5088584;28;20492;-70
2023/01/01 09:47:58;;;;;;;52.10;28.00;;;;;;;5.44;100.00;94551.41;5072007;28;20500;-70
2023/01/01 09:50:34;;;;;;;98.30;61.33;;;;;;;5.60;100.00;94543.91;5082549;28;20066;-70
2023/01/01 09:53:06;;;;;;;61.15;33.53;;;;;;;5.87;100.00;94546.50;5083437;28;20040;-69
2023/01/01 09:55:43;;;;;;;48.97;28.10;;;;;;;6.00;100.00;94552.06;5082903;28;20139;-70
2023/01/01 09:58:12;;;;;;;51.17;27.65;;;;;;;6.01;100.00;94551.09;5085154;28;20083;-69
2023/01/01 10:00:46;;;;;;;49.88;28.90;;;;;;;6.03;100.00;94543.34;5086864;28;20036;-69
2023/01/01 10:03:25;;;;;;;54.03;28.25;;;;;;;6.16;100.00;94542.97;5088957;28;20044;-69
2023/01/01 10:06:00;;;;;;;57.50;28.52;;;;;;;6.37;100.00;94541.78;5089580;28;20571;-69
2023/01/01 10:08:48;;;;;;;53.70;26.73;;;;;;;6.48;100.00;94533.88;5092648;28;20040;-69
2023/01/01 10:11:24;;;;;;;53.80;28.98;;;;;;;6.71;100.00;94540.22;5092183;28;20466;-69
2023/01/01 10:13:54;;;;;;;49.28;26.55;;;;;;;6.86;100.00;94536.16;5091831;28;20496;-69
2023/01/01 10:16:33;;;;;;;60.15;25.20;;;;;;;6.96;100.00;94536.03;5092070;28;20101;-69
2023/01/01 10:19:05;;;;;;;52.05;24.58;;;;;;;7.06;100.00;94530.78;5092271;28;20047;-69
2023/01/01 10:21:36;;;;;;;67.80;27.98;;;;;;;7.00;100.00;94531.41;5092189;28;20094;-69
2023/01/01 10:24:06;;;;;;;78.38;29.30;;;;;;;7.16;100.00;94531.47;5091819;28;20514;-68
2023/01/01 10:26:37;;;;;;;102.88;36.72;;;;;;;7.33;100.00;94529.72;5092183;28;20109;-69
2023/01/01 10:29:14;;;;;;;119.20;38.75;;;;;;;7.30;100.00;94527.50;5091885;28;20541;-69
2023/01/01 10:31:45;;;;;;;91.22;32.45;;;;;;;7.31;100.00;94524.00;5091674;28;20101;-69
2023/01/01 10:34:16;;;;;;;62.97;28.95;;;;;;;7.39;100.00;94524.97;5091532;28;20047;-69
2023/01/01 10:36:43;;;;;;;56.75;27.45;;;;;;;7.39;100.00;94519.84;5091556;28;20496;-69
2023/01/01 10:39:15;;;;;;;60.92;27.52;;;;;;;7.43;100.00;94511.72;5090603;28;20052;-69
2023/01/01 10:41:41;;;;;;;62.75;29.80;;;;;;;7.56;100.00;94518.94;5091938;28;20052;-69
2023/01/01 10:44:11;;;;;;;55.13;28.33;;;;;;;7.69;100.00;94517.66;5092452;28;20100;-69
2023/01/01 10:46:44;;;;;;;60.65;27.02;;;;;;;7.65;100.00;94499.28;5092045;28;20549;-69
2023/01/01 10:49:12;;;;;;;56.60;25.90;;;;;;;7.89;100.00;94513.03;5092448;28;20085;-68
2023/01/01 10:51:44;;;;;;;50.20;24.20;;;;;;;7.97;100.00;94513.00;5092458;28;20044;-69
2023/01/01 10:54:32;;;;;;;53.53;24.38;;;;;;;8.08;100.00;94495.72;5092204;28;20117;-69
2023/01/01 10:56:59;;;;;;;46.42;21.27;;;;;;;8.13;100.00;94491.75;5092089;28;20052;-69
2023/01/01 10:59:36;;;;;;;46.67;22.60;;;;;;;8.36;100.00;94488.50;5092230;28;20500;-69
2023/01/01 11:02:17;;;;;;;45.00;23.42;;;;;;;8.39;100.00;94487.38;5091775;28;20048;-69
2023/01/01 11:04:44;;;;;;;35.80;21.27;;;;;;;8.41;100.00;94481.13;5092261;28;20382;-68
2023/01/01 11:07:28;;;;;;;35.95;20.83;;;;;;;8.50;100.00;94479.34;5092089;28;20044;-68
2023/01/01 11:10:01;;;;;;;39.67;20.77;;;;;;;8.67;100.00;94479.31;5091790;28;20089;-69
2023/01/01 11:12:31;;;;;;;34.70;18.38;;;;;;;8.79;100.00;94477.16;5092179;28;20044;-69
2023/01/01 11:15:00;;;;;;;33.13;20.02;;;;;;;8.85;100.00;94476.53;5091999;28;20044;-68
2023/01/01 11:17:28;;;;;;;36.60;17.50;;;;;;;9.01;100.00;94472.25;5091913;28;20454;-68
2023/01/01 11:19:57;;;;;;;37.67;18.40;;;;;;;9.14;100.00;94464.84;5091361;28;20090;-69
2023/01/01 11:22:39;;;;;;;37.15;20.88;;;;;;;9.25;100.00;94470.53;5091871;28;20567;-69
2023/01/01 11:25:20;;;;;;;35.88;21.10;;;;;;;9.22;100.00;94461.44;5079080;28;20048;-68
2023/01/01 11:27:47;;;;;;;37.53;20.95;;;;;;;9.39;100.00;94458.75;5091763;28;20052;-69